createdAt,value
2023-04-14T00:00:45.860Z,10.4
2023-04-14T00:06:24.199Z,10.6
2023-04-14T00:12:16.853Z,11
2023-04-14T00:18:09.771Z,10.5
2023-04-14T00:24:01.325Z,10.5
2023-04-14T00:29:53.229Z,10.5
2023-04-14T00:35:29.555Z,10.6
2023-04-14T00:41:21.422Z,10.1
2023-04-14T00:47:13.026Z,10.8
2023-04-14T00:53:04.720Z,10.7
2023-04-14T00:58:41.609Z,10.6
2023-04-14T01:04:04.259Z,10.5
2023-04-14T01:10:11.466Z,10
2023-04-14T01:16:03.433Z,10.2
2023-04-14T01:21:54.961Z,10.2
2023-04-14T01:27:31.197Z,10.2
2023-04-14T01:33:23.819Z,10.6
2023-04-14T01:39:15.274Z,10.4
2023-04-14T01:45:06.681Z,10.3
2023-04-14T01:50:44.396Z,10.5
2023-04-14T01:56:36.655Z,10.3
2023-04-14T02:02:28.554Z,10.4
2023-04-14T02:08:20.833Z,10.1
2023-04-14T02:14:12.361Z,10
2023-04-14T02:20:03.440Z,9.9
2023-04-14T02:25:55.104Z,9.8
2023-04-14T02:31:46.164Z,9.8
2023-04-14T02:37:37.143Z,9.6
2023-04-14T02:43:28.516Z,9.6
2023-04-14T02:49:20.020Z,9.6
2023-04-14T02:55:11.519Z,9.7
2023-04-14T03:01:03.310Z,9.7
2023-04-14T03:06:55.852Z,9.6
2023-04-14T03:12:47.178Z,9.4
2023-04-14T03:18:23.090Z,9.3
2023-04-14T03:23:58.738Z,9.3
2023-04-14T03:29:51.470Z,9.6
2023-04-14T03:35:42.891Z,9.6
2023-04-14T03:41:35.274Z,9.9
2023-04-14T03:47:29.460Z,9.6
2023-04-14T03:53:22.849Z,9.8
2023-04-14T03:59:17.259Z,9.4
2023-04-14T04:05:11.676Z,9.2
2023-04-14T04:11:03.671Z,9.3
2023-04-14T04:16:56.564Z,9.3
2023-04-14T04:22:48.273Z,9
2023-04-14T04:28:54.594Z,8.6
2023-04-14T04:34:47.029Z,8.4
2023-04-14T04:40:39.089Z,8.8
2023-04-14T04:46:15.159Z,9.3
2023-04-14T04:51:50.884Z,9.6
2023-04-14T04:57:28.301Z,9.7
2023-04-14T05:02:50.349Z,9.8
2023-04-14T05:08:28.904Z,9.9
2023-04-14T05:14:05.273Z,10.3
2023-04-14T05:19:41.895Z,10.6
2023-04-14T05:25:17.568Z,10.9
2023-04-14T05:31:34.330Z,11.1
2023-04-14T05:36:56.667Z,11.3
2023-04-14T05:42:32.940Z,11.7
2023-04-14T05:48:25.273Z,11.8
2023-04-14T05:54:02.106Z,12.2
2023-04-14T05:59:38.478Z,12.4
2023-04-14T06:05:37.456Z,12.5
2023-04-14T06:11:13.507Z,12.6
2023-04-14T06:16:49.224Z,12.7
2023-04-14T06:22:26.038Z,12.9
2023-04-14T06:28:02.153Z,13.3
2023-04-14T06:33:54.631Z,13.3
2023-04-14T06:39:58.708Z,13.4
2023-04-14T06:45:50.591Z,13.5
2023-04-14T06:51:43.635Z,13.6
2023-04-14T06:57:35.425Z,14.1
2023-04-14T07:03:28.854Z,14.3
2023-04-14T07:09:21.896Z,14.8
2023-04-14T07:15:13.955Z,14.4
2023-04-14T07:20:52.321Z,14.6
2023-04-14T07:26:43.611Z,14.6
2023-04-14T07:32:49.050Z,15.2
2023-04-14T07:38:52.790Z,16.5
2023-04-14T07:44:28.537Z,16.8
2023-04-14T07:50:21.171Z,16.3
2023-04-14T07:56:15.701Z,17.3
2023-04-14T08:01:57.293Z,17.5
2023-04-14T08:07:50.868Z,18
2023-04-14T08:13:26.724Z,18.5
2023-04-14T08:18:47.588Z,18.3
2023-04-14T08:24:24.322Z,17.9
2023-04-14T08:30:01.187Z,17.9
2023-04-14T08:36:52.450Z,17.9
2023-04-14T08:42:44.884Z,19.1
2023-04-14T08:48:38.463Z,19.4
2023-04-14T08:54:14.860Z,19.6
2023-04-14T09:00:07.123Z,19.8
2023-04-14T09:06:02.494Z,20.8
2023-04-14T09:11:54.322Z,21.4
2023-04-14T09:17:45.722Z,21.1
2023-04-14T09:25:33.016Z,21.5
2023-04-14T09:31:08.444Z,21.6
2023-04-14T09:36:44.947Z,21.3
2023-04-14T09:42:36.306Z,21.8
2023-04-14T09:48:12.593Z,21.1
2023-04-14T09:54:05.600Z,21.3
2023-04-14T09:59:58.405Z,20.9
2023-04-14T10:11:28.345Z,20.2
2023-04-14T10:17:20.245Z,21.2
2023-04-14T10:23:13.957Z,20.9
2023-04-14T10:29:07.307Z,19.6
2023-04-14T10:34:59.619Z,18.4
2023-04-14T10:40:35.514Z,16.1
2023-04-14T10:46:26.572Z,15.4
2023-04-14T10:52:20.268Z,14.4
2023-04-14T10:58:10.592Z,13.8
2023-04-14T11:04:04.719Z,13.4
2023-04-14T11:09:56.523Z,13.3
2023-04-14T11:15:34.436Z,13.1
2023-04-14T11:21:37.828Z,12.9
2023-04-14T11:27:28.934Z,12.8
2023-04-14T11:33:22.546Z,12.8
2023-04-14T11:38:58.689Z,12.6
2023-04-14T11:44:50.929Z,12.4
2023-04-14T11:50:41.953Z,12.2
2023-04-14T11:56:18.401Z,11.6
2023-04-14T12:01:55.014Z,11.3
2023-04-14T12:07:33.560Z,11
2023-04-14T12:13:28.037Z,10.8
2023-04-14T12:18:34.271Z,10.6
2023-04-14T12:24:10.553Z,10.1
2023-04-14T12:30:02.388Z,10
2023-04-14T12:35:56.110Z,10.6
2023-04-14T12:41:47.288Z,10.8
2023-04-14T12:47:23.731Z,11.9
2023-04-14T12:53:16.491Z,12.5
2023-04-14T12:59:08.421Z,11.9
2023-04-14T13:05:04.448Z,12.5
2023-04-14T13:10:58.328Z,11.4
2023-04-14T13:17:45.308Z,11.9
2023-04-14T13:23:38.720Z,12.3
2023-04-14T13:29:30.876Z,12.4
2023-04-14T13:35:09.009Z,11.6
2023-04-14T13:41:02.680Z,12.1
2023-04-14T13:46:58.051Z,11.1
2023-04-14T13:52:50.028Z,11
2023-04-14T13:58:43.774Z,12.1
2023-04-14T14:04:39.956Z,13
2023-04-14T14:10:34.105Z,13.4
2023-04-14T14:16:35.867Z,13.9
2023-04-14T14:22:13.159Z,14.1
2023-04-14T14:28:02.087Z,14
2023-04-14T14:33:57.974Z,13.9
2023-04-14T14:39:50.457Z,13.9
2023-04-14T14:45:47.517Z,13.3
2023-04-14T14:51:50.402Z,13.3
2023-04-14T14:57:51.369Z,13.6
2023-04-14T15:03:29.266Z,13.4
2023-04-14T15:09:21.456Z,13.8
2023-04-14T15:15:13.746Z,14.6
2023-04-14T15:21:05.678Z,14.4
2023-04-14T15:26:56.942Z,15.1
2023-04-14T15:32:49.083Z,14.8
2023-04-14T15:38:41.088Z,15.7
2023-04-14T15:44:33.566Z,18.1
2023-04-14T15:50:44.432Z,17.6
2023-04-14T15:56:38.279Z,16.8
2023-04-14T16:02:30.416Z,16.5
2023-04-14T16:08:23.728Z,15.1
2023-04-14T16:14:17.024Z,14.9
2023-04-14T16:20:10.373Z,13.2
2023-04-14T16:26:02.312Z,12.7
2023-04-14T16:31:54.306Z,12.8
2023-04-14T16:37:46.197Z,13.6
2023-04-14T16:43:38.004Z,12.6
2023-04-14T16:49:30.158Z,12.6
2023-04-14T16:55:22.584Z,12.7
2023-04-14T17:01:14.507Z,12.4
2023-04-14T17:07:11.859Z,12.2
2023-04-14T17:13:03.701Z,12.1
2023-04-14T17:19:03.303Z,12.2
2023-04-14T17:24:56.550Z,11.9
2023-04-14T17:30:48.452Z,11.9
2023-04-14T17:36:39.952Z,12.1
2023-04-14T17:42:31.769Z,12.1
2023-04-14T17:48:25.103Z,11.8
2023-04-14T17:54:01.479Z,11.7
2023-04-14T17:59:53.353Z,11.9
2023-04-14T18:05:47.157Z,12.3
2023-04-14T18:11:38.665Z,12.1
2023-04-14T18:17:30.047Z,11.6
2023-04-14T18:23:21.635Z,11.6
2023-04-14T18:29:38.874Z,11.4
2023-04-14T18:35:31.360Z,11.1
2023-04-14T18:41:22.753Z,11.9
2023-04-14T18:47:14.618Z,12
2023-04-14T18:52:50.717Z,12.1
2023-04-14T18:58:52.795Z,11.6
2023-04-14T19:04:30.226Z,11.4
2023-04-14T19:10:21.523Z,11.4
2023-04-14T19:16:09.637Z,11.8
2023-04-14T19:21:46.132Z,11.8
2023-04-14T19:27:22.487Z,11.9
2023-04-14T19:33:00.280Z,12
2023-04-14T19:38:36.951Z,11.8
2023-04-14T19:44:28.305Z,12
2023-04-14T19:50:16.941Z,11.4
2023-04-14T19:56:08.557Z,10.4
2023-04-14T20:02:02.017Z,9.4
2023-04-14T20:08:25.384Z,8.5
2023-04-14T20:14:17.182Z,8.2
2023-04-14T20:20:09.336Z,8.1
2023-04-14T20:26:00.620Z,8
2023-04-14T20:31:53.000Z,8
2023-04-14T20:37:44.513Z,7.5
2023-04-14T20:43:35.315Z,7.3
2023-04-14T20:49:27.624Z,7.4
2023-04-14T20:55:03.414Z,7.8
2023-04-14T21:00:54.209Z,7.3
2023-04-14T21:06:49.318Z,7.2
2023-04-14T21:16:43.830Z,7.1
2023-04-14T21:22:36.007Z,7
2023-04-14T21:28:26.955Z,6.8
2023-04-14T21:34:18.310Z,6.9
2023-04-14T21:39:55.406Z,7
2023-04-14T21:45:30.965Z,6.9
2023-04-14T21:51:23.574Z,6.9
2023-04-14T21:58:05.610Z,7.3
2023-04-14T22:03:58.026Z,7.3
2023-04-14T22:10:00.806Z,7.2
2023-04-14T22:21:29.248Z,7.1
2023-04-14T22:27:04.985Z,6.8
2023-04-14T22:32:42.322Z,6.9
2023-04-14T22:38:18.419Z,7.1
2023-04-14T22:44:09.913Z,6.8
2023-04-14T22:50:02.615Z,6.3
2023-04-14T22:56:00.711Z,6.3
2023-04-14T23:02:02.668Z,6.3
2023-04-14T23:07:56.205Z,6.4
2023-04-14T23:13:48.184Z,6.5
2023-04-14T23:19:38.315Z,6.5
2023-04-14T23:25:30.212Z,6.3
2023-04-14T23:31:06.553Z,6.2
2023-04-14T23:36:58.282Z,6.4
2023-04-14T23:42:50.063Z,6.5
2023-04-14T23:48:41.639Z,6.4
2023-04-14T23:55:31.529Z,6.4
